createdAt,value
2018-07-26T00:00:09.586Z,7.83
2018-07-26T00:02:38.440Z,7.83
2018-07-26T00:05:07.097Z,7.83
2018-07-26T00:07:36.473Z,9.00
2018-07-26T00:10:06.856Z,8.60
2018-07-26T00:12:35.981Z,8.73
2018-07-26T00:15:05.646Z,8.50
2018-07-26T00:17:34.346Z,8.30
2018-07-26T00:20:03.595Z,8.20
2018-07-26T00:22:32.653Z,7.87
2018-07-26T00:25:01.431Z,8.87
2018-07-26T00:27:30.171Z,8.27
2018-07-26T00:29:59.250Z,8.90
2018-07-26T00:32:28.179Z,8.00
2018-07-26T00:34:56.911Z,8.43
2018-07-26T00:37:25.641Z,8.67
2018-07-26T00:39:54.637Z,7.87
2018-07-26T00:42:23.202Z,8.13
2018-07-26T00:44:51.942Z,8.13
2018-07-26T00:47:21.069Z,7.97
2018-07-26T00:49:49.948Z,8.17
2018-07-26T00:52:18.672Z,8.73
2018-07-26T00:54:47.647Z,8.53
2018-07-26T00:57:16.647Z,8.50
2018-07-26T00:59:45.736Z,7.60
2018-07-26T01:02:14.722Z,7.70
2018-07-26T01:04:43.421Z,7.57
2018-07-26T01:07:12.235Z,9.20
2018-07-26T01:09:41.325Z,7.97
2018-07-26T01:12:10.078Z,7.90
2018-07-26T01:14:39.128Z,8.30
2018-07-26T01:17:08.061Z,8.40
2018-07-26T01:19:37.070Z,8.30
2018-07-26T01:22:06.688Z,8.00
2018-07-26T01:24:35.990Z,8.03
2018-07-26T01:27:05.099Z,8.50
2018-07-26T01:29:33.890Z,8.30
2018-07-26T01:32:02.860Z,8.50
2018-07-26T01:34:31.559Z,9.00
2018-07-26T01:37:00.298Z,9.70
2018-07-26T01:39:28.528Z,9.73
2018-07-26T01:41:57.393Z,8.67
2018-07-26T01:44:26.469Z,8.17
2018-07-26T01:46:55.285Z,8.90
2018-07-26T01:49:24.393Z,8.73
2018-07-26T01:51:53.390Z,8.70
2018-07-26T01:54:22.263Z,9.00
2018-07-26T01:56:51.060Z,8.63
2018-07-26T01:59:19.709Z,8.60
2018-07-26T02:01:48.562Z,8.73
2018-07-26T02:04:17.157Z,8.97
2018-07-26T02:06:45.972Z,8.50
2018-07-26T02:09:14.918Z,8.70
2018-07-26T02:11:43.487Z,8.90
2018-07-26T02:14:17.523Z,9.03
2018-07-26T02:16:46.364Z,8.70
2018-07-26T02:19:14.964Z,9.90
2018-07-26T02:21:43.856Z,9.53
2018-07-26T02:24:12.656Z,9.47
2018-07-26T02:26:41.295Z,9.20
2018-07-26T02:29:10.062Z,9.00
2018-07-26T02:31:39.081Z,9.27
2018-07-26T02:34:08.102Z,9.10
2018-07-26T02:36:36.978Z,9.10
2018-07-26T02:39:07.321Z,8.53
2018-07-26T02:41:36.237Z,9.23
2018-07-26T02:44:05.260Z,8.93
2018-07-26T02:46:34.021Z,9.00
2018-07-26T02:49:03.048Z,8.53
2018-07-26T02:51:31.879Z,9.10
2018-07-26T02:54:00.570Z,9.27
2018-07-26T02:56:29.177Z,8.40
2018-07-26T02:58:57.833Z,9.20
2018-07-26T03:01:26.608Z,8.63
2018-07-26T03:03:55.653Z,8.73
2018-07-26T03:06:24.463Z,9.13
2018-07-26T03:08:53.164Z,9.20
2018-07-26T03:11:22.137Z,8.17
2018-07-26T03:13:50.738Z,8.53
2018-07-26T03:16:19.510Z,8.50
2018-07-26T03:18:48.229Z,9.20
2018-07-26T03:21:16.935Z,8.90
2018-07-26T03:23:45.752Z,8.50
2018-07-26T03:26:14.804Z,8.60
2018-07-26T03:28:43.512Z,9.57
2018-07-26T03:31:12.323Z,9.70
2018-07-26T03:33:41.110Z,8.63
2018-07-26T03:36:10.089Z,9.00
2018-07-26T03:38:38.974Z,8.80
2018-07-26T03:41:07.967Z,9.30
2018-07-26T03:43:36.876Z,8.20
2018-07-26T03:46:05.788Z,8.40
2018-07-26T03:48:34.529Z,9.00
2018-07-26T03:51:03.277Z,8.87
2018-07-26T03:53:32.134Z,9.20
2018-07-26T03:56:01.121Z,9.60
2018-07-26T03:58:30.030Z,9.13
2018-07-26T04:00:58.836Z,8.70
2018-07-26T04:03:27.697Z,8.80
2018-07-26T04:05:56.819Z,8.83
2018-07-26T04:08:25.796Z,9.37
2018-07-26T04:10:54.863Z,8.63
2018-07-26T04:13:23.680Z,8.50
2018-07-26T04:15:52.237Z,9.10
2018-07-26T04:18:20.818Z,9.30
2018-07-26T04:20:49.500Z,10.17
2018-07-26T04:23:18.224Z,9.70
2018-07-26T04:25:47.085Z,10.17
2018-07-26T04:28:16.102Z,9.93
2018-07-26T04:30:44.787Z,10.80
2018-07-26T04:33:13.398Z,9.63
2018-07-26T04:35:42.078Z,9.50
2018-07-26T04:38:11.203Z,9.63
2018-07-26T04:40:39.844Z,8.73
2018-07-26T04:43:08.678Z,8.90
2018-07-26T04:45:37.637Z,9.40
2018-07-26T04:48:06.288Z,9.37
2018-07-26T04:50:35.216Z,9.63
2018-07-26T04:53:04.354Z,8.80
2018-07-26T04:55:33.190Z,8.80
2018-07-26T04:58:01.898Z,9.27
2018-07-26T05:00:30.882Z,10.43
2018-07-26T05:02:59.765Z,10.13
2018-07-26T05:05:28.642Z,9.10
2018-07-26T05:07:57.452Z,9.77
2018-07-26T05:10:26.115Z,9.33
2018-07-26T05:12:54.880Z,10.90
2018-07-26T05:15:23.889Z,10.40
2018-07-26T05:17:52.643Z,11.20
2018-07-26T05:20:21.363Z,10.77
2018-07-26T05:22:50.284Z,11.60
2018-07-26T05:25:19.261Z,11.73
2018-07-26T05:27:48.111Z,11.33
2018-07-26T05:30:16.976Z,11.33
2018-07-26T05:32:45.741Z,11.20
2018-07-26T05:35:14.578Z,12.10
2018-07-26T05:37:43.679Z,10.40
2018-07-26T05:40:12.465Z,11.00
2018-07-26T05:42:41.369Z,11.40
2018-07-26T05:45:10.438Z,11.63
2018-07-26T05:47:39.677Z,11.73
2018-07-26T05:50:09.134Z,12.00
2018-07-26T05:52:38.676Z,11.60
2018-07-26T05:55:08.576Z,12.03
2018-07-26T05:57:37.346Z,10.90
2018-07-26T06:00:08.840Z,10.90
2018-07-26T06:02:37.673Z,11.57
2018-07-26T06:05:07.280Z,10.70
2018-07-26T06:07:36.100Z,11.10
2018-07-26T06:10:05.838Z,10.50
2018-07-26T06:12:34.657Z,9.47
2018-07-26T06:15:03.474Z,9.20
2018-07-26T06:17:32.316Z,9.50
2018-07-26T06:20:01.016Z,9.27
2018-07-26T06:22:29.808Z,8.77
2018-07-26T06:24:58.697Z,9.43
2018-07-26T06:27:27.414Z,8.77
2018-07-26T06:29:56.386Z,9.40
2018-07-26T06:32:25.365Z,9.07
2018-07-26T06:34:54.099Z,8.17
2018-07-26T06:37:22.700Z,9.33
2018-07-26T06:39:51.566Z,8.87
2018-07-26T06:42:20.357Z,8.50
2018-07-26T06:44:49.049Z,7.90
2018-07-26T06:47:17.968Z,8.43
2018-07-26T06:49:46.893Z,9.53
2018-07-26T06:52:15.694Z,8.87
2018-07-26T06:54:44.300Z,8.30
2018-07-26T06:57:13.185Z,8.10
2018-07-26T06:59:41.767Z,7.60
2018-07-26T07:02:10.613Z,6.50
2018-07-26T07:04:39.367Z,6.90
2018-07-26T07:07:07.974Z,6.80
2018-07-26T07:09:36.537Z,7.53
2018-07-26T07:12:05.684Z,7.83
2018-07-26T07:14:34.313Z,8.03
2018-07-26T07:17:03.157Z,6.77
2018-07-26T07:19:31.862Z,7.30
2018-07-26T07:22:00.855Z,7.80
2018-07-26T07:24:29.669Z,7.57
2018-07-26T07:26:58.578Z,6.93
2018-07-26T07:29:27.411Z,5.90
2018-07-26T07:31:56.108Z,7.37
2018-07-26T07:34:24.810Z,6.80
2018-07-26T07:36:53.531Z,6.60
2018-07-26T07:39:22.212Z,7.70
2018-07-26T07:41:51.223Z,7.27
2018-07-26T07:44:20.188Z,8.70
2018-07-26T07:46:48.796Z,7.53
2018-07-26T07:49:17.625Z,6.87
2018-07-26T07:51:46.594Z,7.10
2018-07-26T07:54:15.515Z,5.53
2018-07-26T07:56:44.237Z,6.00
2018-07-26T07:59:13.201Z,5.47
2018-07-26T08:01:41.911Z,6.47
2018-07-26T08:04:10.783Z,7.57
2018-07-26T08:06:39.541Z,6.47
2018-07-26T08:09:10.774Z,5.80
2018-07-26T08:11:39.410Z,4.60
2018-07-26T08:14:08.901Z,5.37
2018-07-26T08:16:37.729Z,4.90
2018-07-26T08:19:06.946Z,5.43
2018-07-26T08:21:36.054Z,4.83
2018-07-26T08:24:04.808Z,5.10
2018-07-26T08:26:33.560Z,5.70
2018-07-26T08:29:02.569Z,5.30
2018-07-26T08:31:31.256Z,4.83
2018-07-26T08:34:00.226Z,6.03
2018-07-26T08:36:28.820Z,5.43
2018-07-26T08:38:57.478Z,5.27
2018-07-26T08:41:26.164Z,4.73
2018-07-26T08:43:54.925Z,5.20
2018-07-26T08:46:23.840Z,5.13
2018-07-26T08:48:52.669Z,5.20
2018-07-26T08:51:21.473Z,4.40
2018-07-26T08:53:50.463Z,4.90
2018-07-26T08:56:19.382Z,5.00
2018-07-26T08:58:48.253Z,4.80
2018-07-26T09:01:17.333Z,4.60
2018-07-26T09:03:46.157Z,4.80
2018-07-26T09:06:15.117Z,4.20
2018-07-26T09:08:43.858Z,4.47
2018-07-26T09:11:12.920Z,4.50
2018-07-26T09:13:41.923Z,4.70
2018-07-26T09:16:10.729Z,4.20
2018-07-26T09:18:40.274Z,4.27
2018-07-26T09:21:09.171Z,4.03
2018-07-26T09:23:38.009Z,4.40
2018-07-26T09:26:07.116Z,4.50
2018-07-26T09:28:36.049Z,4.87
2018-07-26T09:31:05.256Z,4.30
2018-07-26T09:33:34.162Z,4.30
2018-07-26T09:36:03.281Z,4.23
2018-07-26T09:38:32.141Z,4.23
2018-07-26T09:41:01.262Z,4.37
2018-07-26T09:43:30.050Z,4.60
2018-07-26T09:45:59.042Z,4.60
2018-07-26T09:48:28.247Z,4.00
2018-07-26T09:50:57.114Z,4.07
2018-07-26T09:53:26.110Z,4.00
2018-07-26T09:55:55.319Z,4.47
2018-07-26T09:58:24.233Z,3.93
2018-07-26T10:00:58.271Z,4.03
2018-07-26T10:03:27.026Z,4.07
2018-07-26T10:05:55.772Z,4.00
2018-07-26T10:08:24.655Z,3.63
2018-07-26T10:10:53.163Z,3.97
2018-07-26T10:13:21.900Z,3.33
2018-07-26T10:15:50.856Z,3.43
2018-07-26T10:18:19.748Z,3.67
2018-07-26T10:20:48.318Z,3.33
2018-07-26T10:23:17.420Z,3.13
2018-07-26T10:25:46.538Z,2.60
2018-07-26T10:28:15.301Z,3.10
2018-07-26T10:30:43.947Z,3.00
2018-07-26T10:33:12.698Z,3.03
2018-07-26T10:35:41.261Z,2.57
2018-07-26T10:38:10.158Z,2.60
2018-07-26T10:40:38.969Z,2.40
2018-07-26T10:43:07.764Z,2.50
2018-07-26T10:45:36.654Z,2.50
2018-07-26T10:48:05.706Z,3.20
2018-07-26T10:50:34.280Z,3.63
2018-07-26T10:53:03.174Z,3.20
2018-07-26T10:55:31.733Z,3.90
2018-07-26T10:58:00.190Z,3.73
2018-07-26T11:00:29.398Z,4.60
2018-07-26T11:02:58.128Z,4.00
2018-07-26T11:05:26.937Z,4.20
2018-07-26T11:07:55.842Z,3.40
2018-07-26T11:10:24.514Z,4.10
2018-07-26T11:12:53.244Z,3.60
2018-07-26T11:15:26.020Z,3.77
2018-07-26T11:17:55.727Z,3.20
2018-07-26T11:20:24.578Z,3.90
2018-07-26T11:22:53.458Z,3.43
2018-07-26T11:25:22.173Z,3.40
2018-07-26T11:27:50.813Z,3.37
2018-07-26T11:30:19.548Z,3.20
2018-07-26T11:32:48.415Z,3.60
2018-07-26T11:35:17.559Z,3.43
2018-07-26T11:37:46.415Z,2.97
2018-07-26T11:40:15.255Z,3.40
2018-07-26T11:42:43.853Z,3.60
2018-07-26T11:45:12.610Z,4.00
2018-07-26T11:47:41.226Z,2.90
2018-07-26T11:50:10.888Z,3.50
2018-07-26T11:52:39.558Z,3.60
2018-07-26T11:55:08.406Z,3.03
2018-07-26T11:57:37.359Z,3.00
2018-07-26T12:00:07.266Z,3.90
2018-07-26T12:02:35.858Z,3.70
2018-07-26T12:05:04.903Z,2.87
2018-07-26T12:07:33.400Z,3.20
2018-07-26T12:10:02.072Z,3.30
2018-07-26T12:12:30.824Z,3.20
2018-07-26T12:14:59.688Z,3.00
2018-07-26T12:17:28.381Z,3.80
2018-07-26T12:19:57.256Z,3.77
2018-07-26T12:22:26.038Z,3.57
2018-07-26T12:24:54.750Z,4.03
2018-07-26T12:27:23.620Z,4.10
2018-07-26T12:29:52.296Z,3.73
2018-07-26T12:32:21.104Z,2.50
2018-07-26T12:34:49.929Z,3.80
2018-07-26T12:37:18.829Z,3.70
2018-07-26T12:39:47.654Z,3.00
2018-07-26T12:42:16.410Z,3.07
2018-07-26T12:44:45.106Z,3.90
2018-07-26T12:47:13.861Z,4.17
2018-07-26T12:49:42.634Z,4.50
2018-07-26T12:52:15.863Z,4.17
2018-07-26T12:54:44.542Z,4.70
2018-07-26T12:57:13.168Z,4.10
2018-07-26T12:59:41.871Z,4.47
2018-07-26T13:02:11.093Z,3.90
2018-07-26T13:04:39.759Z,4.30
2018-07-26T13:07:08.356Z,4.37
2018-07-26T13:09:36.945Z,4.93
2018-07-26T13:12:05.619Z,4.37
2018-07-26T13:14:34.326Z,4.37
2018-07-26T13:17:03.009Z,2.97
2018-07-26T13:19:31.629Z,3.77
2018-07-26T13:22:00.237Z,3.67
2018-07-26T13:24:28.876Z,3.33
2018-07-26T13:26:57.563Z,3.80
2018-07-26T13:29:26.237Z,3.80
2018-07-26T13:31:54.984Z,4.40
2018-07-26T13:34:23.640Z,3.90
2018-07-26T13:36:52.274Z,4.27
2018-07-26T13:39:20.909Z,3.63
2018-07-26T13:41:49.593Z,3.50
2018-07-26T13:44:18.249Z,3.67
2018-07-26T13:46:46.928Z,3.40
2018-07-26T13:49:15.543Z,3.70
2018-07-26T13:51:44.227Z,3.83
2018-07-26T13:54:12.771Z,3.40
2018-07-26T13:56:41.410Z,4.00
2018-07-26T13:59:10.178Z,4.33
2018-07-26T14:01:39.054Z,3.80
2018-07-26T14:04:07.854Z,4.00
2018-07-26T14:06:36.432Z,3.63
2018-07-26T14:09:09.165Z,3.87
2018-07-26T14:11:38.084Z,3.60
2018-07-26T14:14:07.518Z,3.97
2018-07-26T14:16:36.491Z,3.60
2018-07-26T14:19:05.929Z,4.27
2018-07-26T14:21:34.782Z,3.40
2018-07-26T14:24:07.956Z,3.60
2018-07-26T14:26:36.285Z,4.00
2018-07-26T14:29:05.194Z,3.90
2018-07-26T14:31:33.948Z,3.93
2018-07-26T14:34:02.548Z,3.40
2018-07-26T14:36:31.462Z,3.77
2018-07-26T14:39:00.182Z,3.27
2018-07-26T14:41:28.441Z,3.80
2018-07-26T14:43:57.289Z,3.70
2018-07-26T14:46:26.063Z,3.03
2018-07-26T14:48:55.089Z,3.20
2018-07-26T14:51:24.067Z,3.30
2018-07-26T14:53:53.577Z,4.00
2018-07-26T14:56:22.437Z,3.60
2018-07-26T14:58:51.812Z,3.93
2018-07-26T15:01:20.725Z,3.50
2018-07-26T15:03:49.380Z,3.13
2018-07-26T15:06:18.293Z,3.80
2018-07-26T15:08:47.026Z,3.40
2018-07-26T15:11:16.580Z,3.03
2018-07-26T15:13:45.825Z,3.30
2018-07-26T15:16:14.835Z,3.20
2018-07-26T15:18:44.154Z,3.63
2018-07-26T15:21:13.002Z,3.50
2018-07-26T15:23:42.125Z,4.30
2018-07-26T15:26:10.658Z,3.30
2018-07-26T15:28:38.977Z,3.37
2018-07-26T15:31:07.844Z,3.40
2018-07-26T15:33:36.469Z,3.60
2018-07-26T15:36:05.137Z,3.37
2018-07-26T15:38:33.715Z,3.43
2018-07-26T15:41:02.602Z,3.50
2018-07-26T15:43:31.958Z,3.60
2018-07-26T15:46:00.819Z,3.40
2018-07-26T15:48:29.886Z,3.33
2018-07-26T15:50:58.892Z,3.10
2018-07-26T15:53:27.728Z,3.50
2018-07-26T15:55:56.470Z,3.30
2018-07-26T15:58:25.340Z,2.97
2018-07-26T16:00:54.420Z,2.80
2018-07-26T16:03:23.128Z,2.90
2018-07-26T16:05:51.961Z,3.30
2018-07-26T16:08:20.750Z,3.00
2018-07-26T16:10:49.701Z,3.00
2018-07-26T16:13:18.603Z,2.83
2018-07-26T16:15:47.440Z,3.33
2018-07-26T16:18:16.488Z,2.93
2018-07-26T16:20:45.358Z,3.30
2018-07-26T16:23:14.529Z,3.10
2018-07-26T16:25:43.532Z,2.27
2018-07-26T16:28:12.427Z,2.27
2018-07-26T16:30:41.258Z,2.37
2018-07-26T16:33:10.392Z,2.20
2018-07-26T16:35:39.217Z,2.20
2018-07-26T16:38:07.884Z,2.10
2018-07-26T16:40:36.440Z,2.60
2018-07-26T16:43:05.234Z,2.50
2018-07-26T16:45:34.082Z,2.30
2018-07-26T16:48:02.946Z,2.52
2018-07-26T16:50:31.516Z,1.90
2018-07-26T16:53:00.290Z,2.40
2018-07-26T16:55:29.130Z,2.70
2018-07-26T16:57:58.154Z,2.07
2018-07-26T17:00:27.070Z,2.33
2018-07-26T17:02:56.173Z,2.47
2018-07-26T17:05:24.788Z,3.27
2018-07-26T17:07:53.772Z,3.10
2018-07-26T17:10:22.686Z,2.70
2018-07-26T17:12:51.755Z,3.27
2018-07-26T17:15:20.683Z,3.10
2018-07-26T17:17:49.773Z,3.00
2018-07-26T17:20:18.681Z,2.70
2018-07-26T17:22:47.790Z,2.57
2018-07-26T17:25:20.510Z,2.90
2018-07-26T17:27:49.444Z,2.80
2018-07-26T17:30:18.353Z,2.40
2018-07-26T17:32:47.405Z,2.50
2018-07-26T17:35:16.134Z,2.73
2018-07-26T17:37:45.622Z,2.63
2018-07-26T17:40:14.465Z,2.67
2018-07-26T17:42:43.050Z,3.10
2018-07-26T17:45:12.537Z,3.10
2018-07-26T17:47:41.524Z,2.80
2018-07-26T17:50:11.295Z,2.97
2018-07-26T17:52:40.760Z,2.30
2018-07-26T17:55:10.128Z,2.80
2018-07-26T17:57:39.514Z,2.60
2018-07-26T18:00:10.839Z,2.10
2018-07-26T18:02:39.773Z,2.70
2018-07-26T18:05:09.152Z,2.30
2018-07-26T18:07:37.791Z,2.83
2018-07-26T18:10:07.155Z,2.47
2018-07-26T18:12:35.924Z,3.03
2018-07-26T18:15:05.690Z,3.00
2018-07-26T18:17:34.807Z,3.17
2018-07-26T18:20:03.885Z,2.93
2018-07-26T18:22:32.531Z,2.93
2018-07-26T18:25:01.454Z,3.13
2018-07-26T18:27:30.353Z,3.70
2018-07-26T18:29:59.360Z,3.57
2018-07-26T18:32:28.275Z,4.40
2018-07-26T18:34:57.258Z,4.10
2018-07-26T18:37:26.459Z,4.13
2018-07-26T18:39:55.159Z,4.40
2018-07-26T18:42:23.800Z,4.70
2018-07-26T18:44:52.804Z,3.80
2018-07-26T18:47:21.655Z,4.13
2018-07-26T18:49:50.716Z,4.10
2018-07-26T18:52:19.809Z,4.13
2018-07-26T18:54:48.777Z,3.90
2018-07-26T18:57:22.438Z,4.10
2018-07-26T18:59:51.450Z,4.03
2018-07-26T19:02:20.398Z,3.30
2018-07-26T19:04:49.336Z,3.83
2018-07-26T19:07:18.181Z,4.30
2018-07-26T19:09:47.323Z,4.70
2018-07-26T19:12:16.166Z,4.33
2018-07-26T19:14:45.212Z,4.60
2018-07-26T19:17:14.050Z,4.63
2018-07-26T19:19:42.991Z,4.37
2018-07-26T19:22:11.836Z,4.77
2018-07-26T19:24:40.878Z,4.60
2018-07-26T19:27:09.712Z,4.50
2018-07-26T19:29:38.616Z,6.17
2018-07-26T19:32:07.306Z,5.03
2018-07-26T19:34:36.000Z,5.10
2018-07-26T19:37:04.570Z,4.63
2018-07-26T19:39:33.578Z,5.00
2018-07-26T19:42:02.450Z,4.50
2018-07-26T19:44:31.226Z,4.97
2018-07-26T19:47:00.035Z,5.20
2018-07-26T19:49:28.778Z,5.63
2018-07-26T19:51:57.621Z,5.47
2018-07-26T19:54:26.300Z,5.40
2018-07-26T19:56:55.291Z,4.93
2018-07-26T19:59:24.093Z,5.40
2018-07-26T20:01:52.898Z,5.07
2018-07-26T20:04:21.664Z,4.90
2018-07-26T20:06:50.528Z,4.43
2018-07-26T20:09:19.216Z,5.33
2018-07-26T20:11:48.054Z,5.00
2018-07-26T20:14:16.717Z,5.13
2018-07-26T20:16:45.570Z,5.10
2018-07-26T20:19:14.107Z,5.40
2018-07-26T20:21:42.802Z,5.13
2018-07-26T20:24:11.819Z,5.40
2018-07-26T20:26:40.604Z,5.00
2018-07-26T20:29:09.285Z,4.93
2018-07-26T20:31:38.145Z,4.67
2018-07-26T20:34:07.013Z,4.63
2018-07-26T20:36:35.709Z,4.53
2018-07-26T20:39:07.416Z,5.70
2018-07-26T20:41:36.364Z,5.17
2018-07-26T20:44:05.176Z,5.10
2018-07-26T20:46:34.030Z,5.00
2018-07-26T20:49:02.774Z,4.97
2018-07-26T20:51:31.614Z,5.20
2018-07-26T20:54:00.348Z,4.83
2018-07-26T20:56:29.267Z,5.30
2018-07-26T20:58:57.991Z,5.70
2018-07-26T21:01:26.691Z,5.80
2018-07-26T21:03:55.369Z,6.00
2018-07-26T21:06:24.062Z,5.60
2018-07-26T21:08:53.048Z,5.90
2018-07-26T21:11:22.036Z,5.30
2018-07-26T21:13:50.647Z,5.33
2018-07-26T21:16:19.506Z,4.97
2018-07-26T21:18:48.270Z,5.10
2018-07-26T21:21:16.702Z,5.60
2018-07-26T21:23:45.657Z,7.07
2018-07-26T21:26:14.260Z,5.83
2018-07-26T21:28:43.106Z,5.33
2018-07-26T21:31:12.055Z,5.97
2018-07-26T21:33:40.804Z,5.90
2018-07-26T21:36:09.426Z,5.67
2018-07-26T21:38:38.049Z,5.10
2018-07-26T21:41:07.284Z,5.87
2018-07-26T21:43:36.110Z,6.83
2018-07-26T21:46:05.110Z,7.30
2018-07-26T21:48:33.905Z,7.17
2018-07-26T21:51:02.765Z,7.53
2018-07-26T21:53:31.488Z,7.00
2018-07-26T21:56:00.310Z,7.10
2018-07-26T21:58:29.027Z,6.90
2018-07-26T22:00:58.681Z,8.03
2018-07-26T22:03:28.872Z,7.67
2018-07-26T22:05:57.558Z,7.57
2018-07-26T22:08:26.326Z,7.07
2018-07-26T22:10:55.114Z,6.40
2018-07-26T22:13:24.099Z,6.27
2018-07-26T22:15:53.382Z,6.17
2018-07-26T22:18:23.040Z,5.93
2018-07-26T22:20:52.194Z,5.80
2018-07-26T22:23:21.104Z,5.83
2018-07-26T22:25:50.706Z,6.27
2018-07-26T22:28:19.853Z,5.63
2018-07-26T22:30:48.884Z,6.40
2018-07-26T22:33:17.391Z,6.00
2018-07-26T22:35:46.164Z,6.60
2018-07-26T22:38:14.940Z,5.63
2018-07-26T22:40:43.629Z,5.97
2018-07-26T22:43:12.417Z,5.73
2018-07-26T22:45:41.237Z,6.07
2018-07-26T22:48:09.960Z,5.50
2018-07-26T22:50:38.529Z,6.03
2018-07-26T22:53:07.121Z,6.00
2018-07-26T22:55:36.325Z,6.03
2018-07-26T22:58:05.153Z,6.17
2018-07-26T23:00:33.840Z,6.00
2018-07-26T23:03:02.647Z,6.83
2018-07-26T23:05:31.537Z,5.33
2018-07-26T23:07:59.833Z,5.30
2018-07-26T23:10:28.828Z,6.30
2018-07-26T23:12:57.507Z,5.70
2018-07-26T23:15:26.333Z,6.00
2018-07-26T23:17:55.036Z,5.37
2018-07-26T23:20:23.862Z,5.30
2018-07-26T23:22:53.986Z,6.30
2018-07-26T23:25:22.843Z,5.93
2018-07-26T23:27:51.706Z,5.87
2018-07-26T23:30:20.465Z,6.00
2018-07-26T23:32:49.273Z,5.97
2018-07-26T23:35:17.877Z,6.30
2018-07-26T23:37:46.757Z,6.43
2018-07-26T23:40:15.440Z,6.60
2018-07-26T23:42:44.205Z,6.90
2018-07-26T23:45:12.928Z,6.07
2018-07-26T23:47:41.895Z,6.23
2018-07-26T23:50:11.185Z,6.07
2018-07-26T23:52:39.996Z,6.33
2018-07-26T23:55:08.525Z,6.07
2018-07-26T23:57:37.254Z,5.80
